Disclaimer

Please do not use the information listed here in-flight or in-navigation, as they are not provided to us by the airports but are provided by volunteers, so they might be outdated.

Search


Regions


Airport information page

Radio informations:
Tower (TWR) - 118.9 MHz
RDO - 5680 MHz

Airport informations:
Latitude: 12° 24' 36.72" N
Longitude: 016° 44' 46.05" W
Elevation: 52 feet - 16 meters
Operating hours: Remarks
Operating agency: Civil government, landing fees and diplomatic clearance may be required
Timezone: UTC 0
Fuel: N/A

Runway information:
15/33 - 6561 x 98 feet< - >2000 x 30 meters

Recent METARs:
GOGS 130000Z VRB06KT CAVOK 25/23 Q1011
GOGS 130300Z VRB04KT CAVOK 26/23 Q1012
GOGS 130300Z VRB04KT CAVOK 26/23 Q1012

Airport on the map: